createdAt,value
2022-12-17T00:00:33.334Z,101215.47
2022-12-17T00:03:30.752Z,101207.63
2022-12-17T00:06:15.592Z,101207.66
2022-12-17T00:12:01.155Z,101216.38
2022-12-17T00:14:46.817Z,101223.22
2022-12-17T00:17:32.459Z,101215.47
2022-12-17T00:20:19.165Z,101212.91
2022-12-17T00:23:04.396Z,101207.69
2022-12-17T00:25:49.994Z,101195.56
2022-12-17T00:28:35.464Z,101212.09
2022-12-17T00:31:20.972Z,101209.41
2022-12-17T00:34:06.770Z,101211.09
2022-12-17T00:36:53.295Z,101218.09
2022-12-17T00:39:41.024Z,101214.66
2022-12-17T00:42:26.481Z,101220.72
2022-12-17T00:45:11.808Z,101229.34
2022-12-17T00:47:59.362Z,101225.06
2022-12-17T00:50:44.768Z,101229.38
2022-12-17T00:53:31.408Z,101229.31
2022-12-17T00:56:16.847Z,101236.34
2022-12-17T00:59:02.355Z,101239.75
2022-12-17T01:01:47.992Z,101243.19
2022-12-17T01:04:33.704Z,101253.66
2022-12-17T01:07:18.930Z,101247.63
2022-12-17T01:10:06.101Z,101241.78
2022-12-17T01:12:51.429Z,101241.72
2022-12-17T01:15:37.530Z,101236.53
2022-12-17T01:18:23.214Z,101232.22
2022-12-17T01:21:14.612Z,101233.19
2022-12-17T01:24:00.042Z,101237.56
2022-12-17T01:26:47.268Z,101251.31
2022-12-17T01:29:32.717Z,101259.84
2022-12-17T01:32:18.071Z,101257.22
2022-12-17T01:35:03.388Z,101263.25
2022-12-17T01:37:48.885Z,101265.75
2022-12-17T01:40:34.307Z,101270.97
2022-12-17T01:43:21.013Z,101270.22
2022-12-17T01:46:08.564Z,101270.94
2022-12-17T01:49:00.468Z,101264.03
2022-12-17T01:51:48.607Z,101275.28
2022-12-17T01:54:35.533Z,101283.09
2022-12-17T01:57:23.462Z,101290.13
2022-12-17T02:00:17.425Z,101285.78
2022-12-17T02:03:03.627Z,101288.44
2022-12-17T02:05:53.597Z,101282.41
2022-12-17T02:08:48.265Z,101287.63
2022-12-17T02:11:44.774Z,101276.41
2022-12-17T02:14:40.905Z,101278.22
2022-12-17T02:17:33.569Z,101271.22
2022-12-17T02:20:33.019Z,101284.41
2022-12-17T02:23:27.441Z,101278.28
2022-12-17T02:26:18.354Z,101270.50
2022-12-17T02:29:08.614Z,101262.66
2022-12-17T02:31:56.741Z,101270.44
2022-12-17T02:34:42.121Z,101275.88
2022-12-17T02:37:27.550Z,101278.50
2022-12-17T02:40:13.086Z,101270.63
2022-12-17T02:43:00.411Z,101275.06
2022-12-17T02:45:47.468Z,101275.88
2022-12-17T02:48:33.181Z,101273.31
2022-12-17T02:51:18.749Z,101272.34
2022-12-17T02:54:08.927Z,101280.94
2022-12-17T02:56:54.844Z,101270.69
2022-12-17T02:59:40.314Z,101268.06
2022-12-17T03:02:27.133Z,101268.94
2022-12-17T03:05:42.648Z,101269.81
2022-12-17T03:08:18.050Z,101267.31
2022-12-17T03:11:03.456Z,101267.31
2022-12-17T03:13:48.916Z,101265.53
2022-12-17T03:16:37.987Z,101282.72
2022-12-17T03:19:25.286Z,101282.72
2022-12-17T03:22:10.698Z,101279.38
2022-12-17T03:24:56.109Z,101292.41
2022-12-17T03:27:43.575Z,101285.44
2022-12-17T03:30:35.512Z,101282.94
2022-12-17T03:33:21.634Z,101284.59
2022-12-17T03:36:11.386Z,101289.91
2022-12-17T03:38:56.881Z,101286.28
2022-12-17T03:41:42.300Z,101290.66
2022-12-17T03:44:27.662Z,101288.88
2022-12-17T03:47:19.241Z,101282.81
2022-12-17T03:50:04.695Z,101284.59
2022-12-17T03:52:51.850Z,101282.81
2022-12-17T03:55:37.120Z,101293.22
2022-12-17T03:58:22.551Z,101295.00
2022-12-17T04:01:08.004Z,101296.66
2022-12-17T04:03:53.245Z,101303.66
2022-12-17T04:06:38.588Z,101302.69
2022-12-17T04:09:25.639Z,101301.97
2022-12-17T04:12:11.191Z,101305.34
2022-12-17T04:14:56.894Z,101304.44
2022-12-17T04:17:42.364Z,101301.91
2022-12-17T04:20:34.244Z,101301.00
2022-12-17T04:23:19.778Z,101300.94
2022-12-17T04:26:07.506Z,101307.09
2022-12-17T04:28:52.975Z,101310.53
2022-12-17T04:31:38.389Z,101308.00
2022-12-17T04:34:23.841Z,101307.16
2022-12-17T04:37:09.331Z,101315.03
2022-12-17T04:39:54.803Z,101317.59
2022-12-17T04:42:41.879Z,101320.34
2022-12-17T04:45:37.869Z,101324.66
2022-12-17T04:48:25.195Z,101323.66
2022-12-17T04:51:50.475Z,101319.34
2022-12-17T04:54:36.218Z,101305.22
2022-12-17T04:57:21.623Z,101330.56
2022-12-17T05:00:08.919Z,101331.47
2022-12-17T05:02:54.547Z,101319.41
2022-12-17T05:05:44.061Z,101323.78
2022-12-17T05:08:29.385Z,101311.59
2022-12-17T05:11:19.947Z,101308.25
2022-12-17T05:14:05.370Z,101314.38
2022-12-17T05:16:52.464Z,101305.63
2022-12-17T05:19:38.054Z,101297.13
2022-12-17T05:22:23.126Z,101299.63
2022-12-17T05:25:08.598Z,101308.41
2022-12-17T05:27:54.294Z,101305.84
2022-12-17T05:30:39.681Z,101297.09
2022-12-17T05:33:28.028Z,101310.06
2022-12-17T05:36:13.368Z,101318.84
2022-12-17T05:38:58.613Z,101317.97
2022-12-17T05:41:44.339Z,101320.63
2022-12-17T05:44:29.959Z,101307.66
2022-12-17T05:47:15.437Z,101316.34
2022-12-17T05:50:02.568Z,101305.06
2022-12-17T05:52:48.413Z,101306.78
2022-12-17T05:55:34.494Z,101314.66
2022-12-17T05:58:24.016Z,101306.81
2022-12-17T06:01:13.403Z,101304.19
2022-12-17T06:03:59.238Z,101298.94
2022-12-17T06:06:46.182Z,101304.25
2022-12-17T06:09:31.614Z,101310.34
2022-12-17T06:12:17.072Z,101314.72
2022-12-17T06:15:02.416Z,101304.13
2022-12-17T06:17:59.222Z,101317.19
2022-12-17T06:20:44.673Z,101306.72
2022-12-17T06:23:31.436Z,101296.19
2022-12-17T06:26:16.835Z,101302.25
2022-12-17T06:29:02.691Z,101304.84
2022-12-17T06:31:48.076Z,101301.38
2022-12-17T06:34:33.775Z,101323.03
2022-12-17T06:37:19.120Z,101321.28
2022-12-17T06:40:03.312Z,101321.34
2022-12-17T06:42:48.688Z,101320.34
2022-12-17T06:45:34.370Z,101345.44
2022-12-17T06:48:21.445Z,101320.94
2022-12-17T06:51:06.825Z,101334.94
2022-12-17T06:53:52.440Z,101343.53
2022-12-17T06:56:39.051Z,101347.03
2022-12-17T06:59:24.582Z,101344.38
2022-12-17T07:02:18.485Z,101366.94
2022-12-17T07:05:04.067Z,101365.22
2022-12-17T07:07:49.415Z,101367.81
2022-12-17T07:10:34.974Z,101366.06
2022-12-17T07:13:25.173Z,101362.59
2022-12-17T07:16:11.555Z,101356.63
2022-12-17T07:18:57.351Z,101370.41
2022-12-17T07:21:43.611Z,101385.16
2022-12-17T07:24:29.287Z,101381.78
2022-12-17T07:27:14.705Z,101394.69
2022-12-17T07:30:01.385Z,101392.09
2022-12-17T07:32:46.781Z,101392.94
2022-12-17T07:35:32.263Z,101412.69
2022-12-17T07:38:18.721Z,101412.56
2022-12-17T07:41:04.670Z,101422.06
2022-12-17T07:43:53.158Z,101416.75
2022-12-17T07:46:40.595Z,101427.13
2022-12-17T07:49:26.535Z,101426.38
2022-12-17T07:52:12.956Z,101428.03
2022-12-17T07:54:58.277Z,101427.25
2022-12-17T07:57:43.992Z,101437.72
2022-12-17T08:00:33.357Z,101437.72
2022-12-17T08:03:20.464Z,101434.19
2022-12-17T08:06:06.836Z,101437.63
2022-12-17T08:11:51.392Z,101440.16
2022-12-17T08:14:37.197Z,101463.69
2022-12-17T08:17:22.606Z,101466.34
2022-12-17T08:20:09.598Z,101458.47
2022-12-17T08:22:55.110Z,101463.72
2022-12-17T08:25:47.541Z,101476.72
2022-12-17T08:28:50.277Z,101483.53
2022-12-17T08:31:45.068Z,101481.00
2022-12-17T08:34:30.515Z,101488.09
2022-12-17T08:37:17.477Z,101493.22
2022-12-17T08:40:02.817Z,101494.00
2022-12-17T08:42:49.238Z,101490.41
2022-12-17T08:45:35.295Z,101508.81
2022-12-17T08:48:22.082Z,101504.41
2022-12-17T08:51:07.675Z,101520.84
2022-12-17T08:53:57.657Z,101512.28
2022-12-17T08:56:44.089Z,101514.19
2022-12-17T08:59:29.446Z,101520.19
2022-12-17T09:02:15.391Z,101518.50
2022-12-17T09:05:00.916Z,101526.28
2022-12-17T09:07:46.322Z,101529.84
2022-12-17T09:10:32.806Z,101525.56
2022-12-17T09:13:20.178Z,101536.97
2022-12-17T09:16:10.558Z,101537.00
2022-12-17T09:18:56.318Z,101539.75
2022-12-17T09:21:42.281Z,101546.69
2022-12-17T09:24:28.603Z,101561.53
2022-12-17T09:27:15.580Z,101559.75
2022-12-17T09:30:01.070Z,101570.28
2022-12-17T09:32:46.511Z,101570.28
2022-12-17T09:35:31.983Z,101580.03
2022-12-17T09:38:17.429Z,101585.28
2022-12-17T09:41:09.837Z,101604.34
2022-12-17T09:44:04.361Z,101605.97
2022-12-17T09:46:58.857Z,101603.31
2022-12-17T09:49:47.248Z,101606.66
2022-12-17T09:52:39.822Z,101648.22
2022-12-17T09:55:35.234Z,101664.50
2022-12-17T09:58:21.641Z,101682.50
2022-12-17T10:01:11.238Z,101687.69
2022-12-17T10:04:05.606Z,101689.69
2022-12-17T10:06:51.560Z,101701.19
2022-12-17T10:09:37.916Z,101704.56
2022-12-17T10:12:32.005Z,101722.72
2022-12-17T10:15:17.416Z,101743.66
2022-12-17T10:18:04.501Z,101744.47
2022-12-17T10:20:55.199Z,101750.81
2022-12-17T10:23:45.346Z,101762.69
2022-12-17T10:26:35.811Z,101786.69
2022-12-17T10:29:23.685Z,101803.41
2022-12-17T10:32:09.826Z,101805.81
2022-12-17T10:35:03.298Z,101832.78
2022-12-17T10:37:53.087Z,101863.97
2022-12-17T10:40:44.232Z,101877.63
2022-12-17T10:43:47.550Z,101898.53
2022-12-17T10:46:43.175Z,101911.47
2022-12-17T10:49:30.969Z,101937.09
2022-12-17T10:52:25.199Z,101955.16
2022-12-17T10:55:15.849Z,101983.31
2022-12-17T10:58:01.982Z,101992.47
2022-12-17T11:00:50.855Z,102006.03
2022-12-17T11:03:57.371Z,102003.91
2022-12-17T11:06:47.775Z,102056.00
2022-12-17T11:09:50.968Z,102058.03
2022-12-17T11:12:39.226Z,102100.41
2022-12-17T11:15:35.415Z,102147.28
2022-12-17T11:18:37.088Z,102189.91
2022-12-17T11:21:27.707Z,102227.25
2022-12-17T11:24:21.994Z,102261.00
2022-12-17T11:27:14.916Z,102279.28
2022-12-17T11:30:00.587Z,102312.69
2022-12-17T11:33:13.861Z,102336.97
2022-12-17T11:36:06.412Z,102352.00
2022-12-17T11:38:57.342Z,102360.25
2022-12-17T11:41:57.317Z,102366.00
2022-12-17T11:44:58.588Z,102379.78
2022-12-17T11:47:59.252Z,102378.63
2022-12-17T11:50:51.241Z,102386.03
2022-12-17T11:53:58.958Z,102401.66
2022-12-17T11:56:49.623Z,102401.53
2022-12-17T11:59:42.061Z,102384.22
2022-12-17T12:02:42.750Z,102393.53
2022-12-17T12:05:40.765Z,102381.72
2022-12-17T12:08:37.764Z,102360.13
2022-12-17T12:11:35.148Z,102388.56
2022-12-17T12:14:37.518Z,102374.25
2022-12-17T12:17:40.586Z,102381.25
2022-12-17T12:20:40.238Z,102366.47
2022-12-17T12:23:34.264Z,102348.78
2022-12-17T12:26:31.279Z,102341.66
2022-12-17T12:32:31.188Z,102358.63
2022-12-17T12:35:30.727Z,102319.25
2022-12-17T12:38:16.893Z,102328.19
2022-12-17T12:41:17.361Z,102330.53
2022-12-17T12:44:13.964Z,102343.91
2022-12-17T12:47:06.151Z,102359.09
2022-12-17T12:50:04.749Z,102348.69
2022-12-17T12:52:53.342Z,102343.22
2022-12-17T12:55:38.598Z,102349.59
2022-12-17T12:58:42.833Z,102351.56
2022-12-17T13:01:31.888Z,102328.66
2022-12-17T13:04:21.501Z,102340.94
2022-12-17T13:06:54.518Z,102330.66
2022-12-17T13:09:35.129Z,102310.34
2022-12-17T13:12:25.569Z,102318.47
2022-12-17T13:15:12.479Z,102326.94
2022-12-17T13:17:45.891Z,102317.78
2022-12-17T13:20:27.192Z,102304.41
2022-12-17T13:23:14.778Z,102335.50
2022-12-17T13:25:48.315Z,102334.09
2022-12-17T13:28:31.078Z,102334.59
2022-12-17T13:31:04.103Z,102340.47
2022-12-17T13:33:40.485Z,102323.53
2022-12-17T13:36:19.053Z,102326.91
2022-12-17T13:38:56.122Z,102315.94
2022-12-17T13:41:31.489Z,102316.78
2022-12-17T13:44:03.036Z,102311.91
2022-12-17T13:46:46.446Z,102302.22
2022-12-17T13:49:19.106Z,102300.69
2022-12-17T13:51:47.314Z,102316.78
2022-12-17T13:54:18.128Z,102343.03
2022-12-17T13:56:47.664Z,102347.59
2022-12-17T13:59:21.267Z,102340.28
2022-12-17T14:01:51.401Z,102336.38
2022-12-17T14:04:24.468Z,102328.34
2022-12-17T14:06:53.663Z,102330.50
2022-12-17T14:09:26.186Z,102318.13
2022-12-17T14:12:13.777Z,102321.38
2022-12-17T14:14:44.820Z,102319.50
2022-12-17T14:17:19.158Z,102318.53
2022-12-17T14:19:48.350Z,102319.25
2022-12-17T14:22:26.111Z,102314.56
2022-12-17T14:24:54.173Z,102308.41
2022-12-17T14:27:32.110Z,102303.00
2022-12-17T14:30:00.194Z,102292.03
2022-12-17T14:32:35.043Z,102295.56
2022-12-17T14:35:03.516Z,102285.78
2022-12-17T14:37:32.377Z,102279.50
2022-12-17T14:40:04.016Z,102261.13
2022-12-17T14:42:38.311Z,102241.41
2022-12-17T14:45:21.605Z,102244.91
2022-12-17T14:47:54.699Z,102231.47
2022-12-17T14:50:30.275Z,102214.31
2022-12-17T14:52:59.675Z,102194.28
2022-12-17T14:55:37.122Z,102178.78
2022-12-17T14:58:18.888Z,102169.97
2022-12-17T15:00:50.015Z,102155.03
2022-12-17T15:03:27.491Z,102144.47
2022-12-17T15:05:59.280Z,102123.19
2022-12-17T15:08:27.841Z,102118.13
2022-12-17T15:10:59.692Z,102099.22
2022-12-17T15:13:32.875Z,102084.59
2022-12-17T15:16:00.876Z,102055.19
2022-12-17T15:18:29.369Z,102041.16
2022-12-17T15:21:03.032Z,102024.69
2022-12-17T15:23:32.322Z,102005.31
2022-12-17T15:26:00.232Z,102014.34
2022-12-17T15:28:29.547Z,102005.69
2022-12-17T15:30:57.437Z,101982.25
2022-12-17T15:33:25.293Z,101973.25
2022-12-17T15:35:53.209Z,101996.84
2022-12-17T15:38:21.391Z,101951.34
2022-12-17T15:40:49.260Z,101973.41
2022-12-17T15:43:16.291Z,101972.38
2022-12-17T15:45:48.667Z,101954.03
2022-12-17T15:48:29.387Z,101948.56
2022-12-17T15:50:57.489Z,101955.66
2022-12-17T15:53:25.450Z,101953.88
2022-12-17T15:56:02.000Z,101917.59
2022-12-17T15:58:30.463Z,101930.09
2022-12-17T16:01:00.643Z,101927.53
2022-12-17T16:03:28.803Z,101935.38
2022-12-17T16:05:57.058Z,101937.88
2022-12-17T16:08:25.070Z,101949.91
2022-12-17T16:10:52.983Z,101929.66
2022-12-17T16:13:20.849Z,101938.47
2022-12-17T16:16:03.449Z,101923.66
2022-12-17T16:18:38.672Z,101933.56
2022-12-17T16:21:09.880Z,101904.56
2022-12-17T16:23:38.291Z,101923.91
2022-12-17T16:26:08.243Z,101929.94
2022-12-17T16:28:38.026Z,101925.66
2022-12-17T16:31:09.272Z,101926.50
2022-12-17T16:33:40.585Z,101924.63
2022-12-17T16:36:12.071Z,101923.03
2022-12-17T16:38:44.442Z,101923.53
2022-12-17T16:41:13.433Z,101917.50
2022-12-17T16:43:42.698Z,101900.78
2022-12-17T16:46:26.392Z,101906.66
2022-12-17T16:48:56.910Z,101919.63
2022-12-17T16:51:29.351Z,101910.03
2022-12-17T16:53:59.818Z,101888.88
2022-12-17T16:56:29.354Z,101899.50
2022-12-17T16:58:57.998Z,101897.75
2022-12-17T17:01:28.428Z,101897.59
2022-12-17T17:03:58.642Z,101883.56
2022-12-17T17:06:31.868Z,101876.06
2022-12-17T17:09:04.505Z,101876.81
2022-12-17T17:11:34.558Z,101879.41
2022-12-17T17:14:02.792Z,101868.84
2022-12-17T17:16:34.244Z,101862.50
2022-12-17T17:19:04.493Z,101873.09
2022-12-17T17:21:36.650Z,101870.50
2022-12-17T17:24:08.197Z,101871.19
2022-12-17T17:26:36.349Z,101857.22
2022-12-17T17:29:20.340Z,101854.22
2022-12-17T17:35:49.814Z,101841.06
2022-12-17T17:39:03.766Z,101847.38
2022-12-17T17:41:35.063Z,101839.53
2022-12-17T17:44:05.069Z,101836.09
2022-12-17T17:46:39.054Z,101840.31
2022-12-17T17:49:17.953Z,101832.50
2022-12-17T17:54:45.680Z,101824.59
2022-12-17T17:57:19.258Z,101820.44
2022-12-17T18:00:19.978Z,101810.91
2022-12-17T18:02:50.411Z,101795.91
2022-12-17T18:05:19.141Z,101802.84
2022-12-17T18:07:49.099Z,101818.50
2022-12-17T18:10:18.576Z,101818.50
2022-12-17T18:13:05.433Z,101821.03
2022-12-17T18:15:33.397Z,101824.66
2022-12-17T18:18:03.723Z,101812.41
2022-12-17T18:20:31.704Z,101812.41
2022-12-17T18:22:59.775Z,101822.00
2022-12-17T18:25:38.180Z,101825.38
2022-12-17T18:28:06.179Z,101828.88
2022-12-17T18:30:34.547Z,101821.84
2022-12-17T18:33:02.465Z,101808.13
2022-12-17T18:35:30.329Z,101799.44
2022-12-17T18:38:02.706Z,101799.44
2022-12-17T18:40:36.458Z,101805.47
2022-12-17T18:43:27.825Z,101801.09
2022-12-17T18:45:57.338Z,101794.16
2022-12-17T18:52:16.691Z,101801.16
2022-12-17T18:54:45.786Z,101807.16
2022-12-17T18:57:21.022Z,101809.81
2022-12-17T19:00:14.950Z,101790.63
2022-12-17T19:02:44.264Z,101815.00
2022-12-17T19:05:12.350Z,101817.59
2022-12-17T19:07:40.184Z,101814.19
2022-12-17T19:13:09.057Z,101809.81
2022-12-17T19:16:12.797Z,101814.13
2022-12-17T19:18:41.349Z,101815.00
2022-12-17T19:21:12.627Z,101800.13
2022-12-17T19:23:40.465Z,101808.72
2022-12-17T19:26:10.664Z,101814.06
2022-12-17T19:28:40.903Z,101812.41
2022-12-17T19:31:09.117Z,101815.00
2022-12-17T19:33:37.291Z,101809.72
2022-12-17T19:36:18.096Z,101809.00
2022-12-17T19:38:46.602Z,101812.25
2022-12-17T19:41:35.429Z,101812.09
2022-12-17T19:44:06.854Z,101823.41
2022-12-17T19:46:42.089Z,101816.16
2022-12-17T19:49:13.226Z,101811.69
2022-12-17T19:51:44.195Z,101822.38
2022-12-17T19:54:14.741Z,101823.75
2022-12-17T19:56:44.114Z,101833.69
2022-12-17T19:59:14.106Z,101828.50
2022-12-17T20:01:44.715Z,101828.50
2022-12-17T20:04:14.022Z,101833.47
2022-12-17T20:06:42.015Z,101830.88
2022-12-17T20:09:11.978Z,101829.16
2022-12-17T20:11:40.477Z,101827.47
2022-12-17T20:14:11.663Z,101827.47
2022-12-17T20:16:42.924Z,101830.00
2022-12-17T20:19:14.964Z,101829.94
2022-12-17T20:21:43.267Z,101832.50
2022-12-17T20:24:11.515Z,101827.22
2022-12-17T20:26:43.378Z,101820.84
2022-12-17T20:29:14.003Z,101824.44
2022-12-17T20:31:51.971Z,101833.00
2022-12-17T20:34:24.336Z,101835.44
2022-12-17T20:36:52.785Z,101845.00
2022-12-17T20:39:26.709Z,101843.25
2022-12-17T20:41:57.530Z,101838.63
2022-12-17T20:44:25.919Z,101838.44
2022-12-17T20:46:55.325Z,101835.09
2022-12-17T20:49:23.216Z,101830.84
2022-12-17T20:51:51.032Z,101834.16
2022-12-17T20:54:19.350Z,101839.38
2022-12-17T20:56:47.433Z,101840.22
2022-12-17T20:59:17.816Z,101832.50
2022-12-17T21:01:51.688Z,101835.59
2022-12-17T21:04:25.972Z,101843.47
2022-12-17T21:06:55.806Z,101829.41
2022-12-17T21:09:28.783Z,101831.97
2022-12-17T21:11:56.667Z,101839.78
2022-12-17T21:14:24.651Z,101843.25
2022-12-17T21:16:52.513Z,101838.03
2022-12-17T21:19:20.913Z,101844.97
2022-12-17T21:21:50.857Z,101845.66
2022-12-17T21:24:18.776Z,101853.56
2022-12-17T21:26:47.254Z,101860.50
2022-12-17T21:29:15.751Z,101859.63
2022-12-17T21:31:46.359Z,101863.16
2022-12-17T21:34:16.844Z,101862.13
2022-12-17T21:36:45.247Z,101861.28
2022-12-17T21:39:16.703Z,101864.63
2022-12-17T21:42:08.044Z,101874.00
2022-12-17T21:44:36.704Z,101870.47
2022-12-17T21:47:04.751Z,101868.69
2022-12-17T21:49:32.821Z,101871.41
2022-12-17T21:52:02.024Z,101863.53
2022-12-17T21:54:31.379Z,101855.69
2022-12-17T21:56:59.401Z,101856.56
2022-12-17T21:59:27.397Z,101857.47
2022-12-17T22:01:57.124Z,101863.34
2022-12-17T22:04:26.443Z,101858.22
2022-12-17T22:06:57.641Z,101854.59
2022-12-17T22:09:56.421Z,101870.13
2022-12-17T22:12:48.143Z,101857.13
2022-12-17T22:15:18.372Z,101855.59
2022-12-17T22:17:46.972Z,101862.31
2022-12-17T22:20:17.389Z,101867.13
2022-12-17T22:22:45.857Z,101868.00
2022-12-17T22:25:15.909Z,101874.84
2022-12-17T22:27:44.037Z,101871.53
2022-12-17T22:30:33.624Z,101881.78
2022-12-17T22:33:08.528Z,101885.31
2022-12-17T22:36:47.360Z,101897.25
2022-12-17T22:42:31.040Z,101901.44
2022-12-17T22:44:49.373Z,101900.78
2022-12-17T22:44:55.248Z,101900.72
2022-12-17T22:47:25.911Z,101900.03
2022-12-17T22:49:53.957Z,101893.78
2022-12-17T22:52:22.385Z,101903.31
2022-12-17T22:54:50.750Z,101884.19
2022-12-17T22:57:36.868Z,101882.50
2022-12-17T23:00:12.164Z,101878.06
2022-12-17T23:02:40.705Z,101879.78
2022-12-17T23:05:09.408Z,101882.25
2022-12-17T23:07:39.212Z,101879.78
2022-12-17T23:10:07.987Z,101878.25
2022-12-17T23:12:52.852Z,101867.72
2022-12-17T23:15:23.634Z,101875.06
2022-12-17T23:17:52.958Z,101876.72
2022-12-17T23:20:21.450Z,101867.06
2022-12-17T23:22:49.274Z,101868.84
2022-12-17T23:25:17.471Z,101871.25
2022-12-17T23:27:47.251Z,101870.47
2022-12-17T23:30:16.944Z,101874.56
2022-12-17T23:32:45.391Z,101884.84
2022-12-17T23:35:14.394Z,101874.78
2022-12-17T23:37:42.704Z,101880.44
2022-12-17T23:40:12.936Z,101886.72
2022-12-17T23:42:40.933Z,101890.09
2022-12-17T23:45:11.887Z,101892.50
2022-12-17T23:47:42.535Z,101877.84
2022-12-17T23:50:11.694Z,101882.13
2022-12-17T23:52:39.855Z,101883.66
2022-12-17T23:55:08.260Z,101878.53
2022-12-17T23:57:36.137Z,101883.13
